createdAt,value
2018-08-14T00:01:10.014Z,23.70
2018-08-14T00:03:38.025Z,23.47
2018-08-14T00:06:06.035Z,22.03
2018-08-14T00:08:34.232Z,22.17
2018-08-14T00:11:02.264Z,23.20
2018-08-14T00:13:30.366Z,23.40
2018-08-14T00:15:58.384Z,24.20
2018-08-14T00:18:26.405Z,24.77
2018-08-14T00:20:54.448Z,23.60
2018-08-14T00:23:22.540Z,24.87
2018-08-14T00:25:50.613Z,24.50
2018-08-14T00:28:18.656Z,26.23
2018-08-14T00:30:46.689Z,26.07
2018-08-14T00:33:14.725Z,25.77
2018-08-14T00:35:42.718Z,26.03
2018-08-14T00:38:10.721Z,28.20
2018-08-14T00:40:38.772Z,29.37
2018-08-14T00:43:08.717Z,28.37
2018-08-14T00:45:36.791Z,28.83
2018-08-14T00:48:05.446Z,29.47
2018-08-14T00:50:33.455Z,27.90
2018-08-14T00:53:01.447Z,29.17
2018-08-14T00:55:29.473Z,28.67
2018-08-14T00:57:57.481Z,27.50
2018-08-14T01:00:27.792Z,28.70
2018-08-14T01:02:55.867Z,30.70
2018-08-14T01:05:23.936Z,28.63
2018-08-14T01:07:51.944Z,30.80
2018-08-14T01:10:19.994Z,29.87
2018-08-14T01:12:51.396Z,29.37
2018-08-14T01:15:20.477Z,30.30
2018-08-14T01:17:50.123Z,28.90
2018-08-14T01:20:19.092Z,30.73
2018-08-14T01:22:47.508Z,30.57
2018-08-14T01:25:16.172Z,29.90
2018-08-14T01:27:44.228Z,28.77
2018-08-14T01:30:23.772Z,29.23
2018-08-14T01:35:26.392Z,29.23
2018-08-14T01:37:54.416Z,29.97
2018-08-14T01:40:22.460Z,30.07
2018-08-14T01:42:50.486Z,29.83
2018-08-14T01:45:18.492Z,30.03
2018-08-14T01:47:46.551Z,29.93
2018-08-14T01:50:18.701Z,28.73
2018-08-14T01:52:46.964Z,27.83
2018-08-14T01:55:14.984Z,29.00
2018-08-14T01:57:43.050Z,30.10
2018-08-14T02:00:11.086Z,27.37
2018-08-14T02:02:39.109Z,31.07
2018-08-14T02:05:08.501Z,30.50
2018-08-14T02:07:36.928Z,30.73
2018-08-14T02:10:07.152Z,29.60
2018-08-14T02:12:35.196Z,30.23
2018-08-14T02:15:03.241Z,28.93
2018-08-14T02:17:31.446Z,30.43
2018-08-14T02:19:59.480Z,30.37
2018-08-14T02:22:27.508Z,30.00
2018-08-14T02:24:55.524Z,29.27
2018-08-14T02:27:23.528Z,28.87
2018-08-14T02:29:51.546Z,30.00
2018-08-14T02:32:19.608Z,29.90
2018-08-14T02:34:47.654Z,30.37
2018-08-14T02:37:15.673Z,29.97
2018-08-14T02:39:43.716Z,27.73
2018-08-14T02:42:11.790Z,29.90
2018-08-14T02:44:39.792Z,32.33
2018-08-14T02:47:07.885Z,29.87
2018-08-14T02:49:35.877Z,28.73
2018-08-14T02:52:04.081Z,28.17
2018-08-14T02:54:32.117Z,29.90
2018-08-14T02:57:00.191Z,28.70
2018-08-14T02:59:28.188Z,28.20
2018-08-14T03:01:56.208Z,28.40
2018-08-14T03:04:24.207Z,28.23
2018-08-14T03:06:52.218Z,26.67
2018-08-14T03:09:20.249Z,28.30
2018-08-14T03:11:48.240Z,26.80
2018-08-14T03:14:16.257Z,27.23
2018-08-14T03:16:44.372Z,27.53
2018-08-14T03:19:12.431Z,26.97
2018-08-14T03:21:40.453Z,28.23
2018-08-14T03:24:08.473Z,27.23
2018-08-14T03:26:36.522Z,28.20
2018-08-14T03:29:04.521Z,26.30
2018-08-14T03:31:32.549Z,26.50
2018-08-14T03:34:00.649Z,26.17
2018-08-14T03:36:28.665Z,26.60
2018-08-14T03:38:56.736Z,27.97
2018-08-14T03:41:24.760Z,28.70
2018-08-14T03:43:52.770Z,25.23
2018-08-14T03:46:20.761Z,25.60
2018-08-14T03:48:48.748Z,25.23
2018-08-14T03:51:16.778Z,27.60
2018-08-14T03:53:44.768Z,26.63
2018-08-14T03:56:13.563Z,28.97
2018-08-14T03:58:41.553Z,28.90
2018-08-14T04:01:09.546Z,28.27
2018-08-14T04:03:37.567Z,29.27
2018-08-14T04:06:05.712Z,25.43
2018-08-14T04:08:33.689Z,27.33
2018-08-14T04:11:01.696Z,27.40
2018-08-14T04:13:29.701Z,27.47
2018-08-14T04:15:57.749Z,25.27
2018-08-14T04:18:25.752Z,27.20
2018-08-14T04:20:53.790Z,25.57
2018-08-14T04:23:21.791Z,27.43
2018-08-14T04:25:49.813Z,26.80
2018-08-14T04:28:17.829Z,26.47
2018-08-14T04:30:45.821Z,27.50
2018-08-14T04:33:13.919Z,25.70
2018-08-14T04:35:42.038Z,26.70
2018-08-14T04:38:10.033Z,26.77
2018-08-14T04:40:38.045Z,27.57
2018-08-14T04:43:06.135Z,26.90
2018-08-14T04:45:34.136Z,30.30
2018-08-14T04:48:02.261Z,29.77
2018-08-14T04:50:30.324Z,29.47
2018-08-14T04:52:58.320Z,30.33
2018-08-14T04:55:26.361Z,29.53
2018-08-14T04:57:54.375Z,28.07
2018-08-14T05:00:22.384Z,28.90
2018-08-14T05:02:50.392Z,29.77
2018-08-14T05:05:18.479Z,29.53
2018-08-14T05:07:46.506Z,28.17
2018-08-14T05:10:15.620Z,29.90
2018-08-14T05:12:43.725Z,30.30
2018-08-14T05:15:11.741Z,32.37
2018-08-14T05:17:40.382Z,31.27
2018-08-14T05:20:09.804Z,32.60
2018-08-14T05:22:37.830Z,32.57
2018-08-14T05:25:06.170Z,32.70
2018-08-14T05:27:34.214Z,32.77
2018-08-14T05:30:02.428Z,33.47
2018-08-14T05:32:30.465Z,35.20
2018-08-14T05:34:58.496Z,33.60
2018-08-14T05:37:33.269Z,35.93
2018-08-14T05:42:30.858Z,37.50
2018-08-14T05:44:58.908Z,36.30
2018-08-14T05:47:26.921Z,36.50
2018-08-14T05:49:54.933Z,34.07
2018-08-14T05:52:22.958Z,35.77
2018-08-14T05:54:50.980Z,38.07
2018-08-14T05:57:19.016Z,34.10
2018-08-14T05:59:47.031Z,36.43
2018-08-14T06:02:15.036Z,35.23
2018-08-14T06:04:43.160Z,35.27
2018-08-14T06:07:11.285Z,33.77
2018-08-14T06:09:39.320Z,31.80
2018-08-14T06:12:07.565Z,28.63
2018-08-14T06:14:35.572Z,29.47
2018-08-14T06:17:03.630Z,32.07
2018-08-14T06:19:31.572Z,27.97
2018-08-14T06:21:59.606Z,26.80
2018-08-14T06:24:27.632Z,26.90
2018-08-14T06:26:55.708Z,25.30
2018-08-14T06:29:23.839Z,24.57
2018-08-14T06:31:51.951Z,26.30
2018-08-14T06:34:20.028Z,24.00
2018-08-14T06:36:48.034Z,23.63
2018-08-14T06:39:16.036Z,24.00
2018-08-14T06:41:44.517Z,22.90
2018-08-14T06:44:12.596Z,23.13
2018-08-14T06:46:40.660Z,23.83
2018-08-14T06:49:08.792Z,24.43
2018-08-14T06:51:36.743Z,23.60
2018-08-14T06:54:04.976Z,23.53
2018-08-14T06:56:32.992Z,24.27
2018-08-14T06:59:01.015Z,24.53
2018-08-14T07:01:29.020Z,23.03
2018-08-14T07:03:57.089Z,22.43
2018-08-14T07:06:25.492Z,22.47
2018-08-14T07:08:53.628Z,21.97
2018-08-14T07:11:21.637Z,18.70
2018-08-14T07:13:49.656Z,17.67
2018-08-14T07:16:17.707Z,16.40
2018-08-14T07:18:45.853Z,16.20
2018-08-14T07:21:13.868Z,15.43
2018-08-14T07:23:41.903Z,13.80
2018-08-14T07:26:09.949Z,14.00
2018-08-14T07:28:37.995Z,13.90
2018-08-14T07:31:06.102Z,13.20
2018-08-14T07:33:34.142Z,14.83
2018-08-14T07:36:02.265Z,15.00
2018-08-14T07:38:30.326Z,15.87
2018-08-14T07:40:58.325Z,15.03
2018-08-14T07:43:26.322Z,15.00
2018-08-14T07:45:54.347Z,13.47
2018-08-14T07:48:22.365Z,13.47
2018-08-14T07:50:50.389Z,11.97
2018-08-14T07:53:18.398Z,13.37
2018-08-14T07:55:46.424Z,10.93
2018-08-14T07:58:14.541Z,11.60
2018-08-14T08:00:42.552Z,11.90
2018-08-14T08:03:10.612Z,10.67
2018-08-14T08:05:38.621Z,10.30
2018-08-14T08:08:06.775Z,9.47
2018-08-14T08:10:34.860Z,8.63
2018-08-14T08:13:02.850Z,8.20
2018-08-14T08:15:30.928Z,9.73
2018-08-14T08:17:58.965Z,10.10
2018-08-14T08:20:28.692Z,10.83
2018-08-14T08:22:56.712Z,11.00
2018-08-14T08:25:25.553Z,12.30
2018-08-14T08:27:53.556Z,12.80
2018-08-14T08:30:21.776Z,12.80
2018-08-14T08:32:48.901Z,12.10
2018-08-14T08:35:16.946Z,12.47
2018-08-14T08:37:45.021Z,12.83
2018-08-14T08:40:13.716Z,12.93
2018-08-14T08:42:41.712Z,9.77
2018-08-14T08:45:10.329Z,8.67
2018-08-14T08:47:38.499Z,6.17
2018-08-14T08:50:08.369Z,6.80
2018-08-14T08:52:36.522Z,6.30
2018-08-14T08:55:05.121Z,4.00
2018-08-14T08:57:33.128Z,3.43
2018-08-14T09:00:01.181Z,3.60
2018-08-14T09:02:29.461Z,3.70
2018-08-14T09:04:57.461Z,4.37
2018-08-14T09:07:25.487Z,4.90
2018-08-14T09:09:53.509Z,5.27
2018-08-14T09:12:21.552Z,5.53
2018-08-14T09:14:49.533Z,5.67
2018-08-14T09:17:17.560Z,7.90
2018-08-14T09:19:45.557Z,7.60
2018-08-14T09:22:16.429Z,6.83
2018-08-14T09:24:44.464Z,8.40
2018-08-14T09:27:12.533Z,7.47
2018-08-14T09:29:40.621Z,7.30
2018-08-14T09:32:08.649Z,7.63
2018-08-14T09:34:36.702Z,7.53
2018-08-14T09:37:04.740Z,6.50
2018-08-14T09:39:32.761Z,5.40
2018-08-14T09:42:00.774Z,5.70
2018-08-14T09:44:28.789Z,5.30
2018-08-14T09:46:56.788Z,4.90
2018-08-14T09:49:24.820Z,4.03
2018-08-14T09:51:52.860Z,3.80
2018-08-14T09:54:20.866Z,3.10
2018-08-14T09:56:48.928Z,2.70
2018-08-14T09:59:16.941Z,2.27
2018-08-14T10:02:54.237Z,2.40
2018-08-14T10:05:27.596Z,2.83
2018-08-14T10:08:01.040Z,3.27
2018-08-14T10:10:29.075Z,3.40
2018-08-14T10:12:57.093Z,3.10
2018-08-14T10:15:25.127Z,2.83
2018-08-14T10:17:53.145Z,3.17
2018-08-14T10:20:21.162Z,2.27
2018-08-14T10:25:11.112Z,3.20
2018-08-14T10:27:39.129Z,2.30
2018-08-14T10:30:13.436Z,3.17
2018-08-14T10:32:41.680Z,2.70
2018-08-14T10:35:09.704Z,2.90
2018-08-14T10:37:37.817Z,2.33
2018-08-14T10:40:09.296Z,2.80
2018-08-14T10:42:37.260Z,3.00
2018-08-14T10:45:06.233Z,2.50
2018-08-14T10:47:34.420Z,3.60
2018-08-14T10:50:02.461Z,2.63
2018-08-14T10:52:30.514Z,2.43
2018-08-14T10:54:58.548Z,2.70
2018-08-14T10:57:26.561Z,1.60
2018-08-14T10:59:54.638Z,1.70
2018-08-14T11:02:22.620Z,1.77
2018-08-14T11:04:50.691Z,1.73
2018-08-14T11:07:18.692Z,1.40
2018-08-14T11:09:46.744Z,1.50
2018-08-14T11:12:15.445Z,1.67
2018-08-14T11:14:43.501Z,1.60
2018-08-14T11:17:12.835Z,1.80
2018-08-14T11:19:40.892Z,1.70
2018-08-14T11:22:09.097Z,2.20
2018-08-14T11:24:37.336Z,2.10
2018-08-14T11:27:05.880Z,1.67
2018-08-14T11:29:33.908Z,1.97
2018-08-14T11:32:01.925Z,2.47
2018-08-14T11:34:29.913Z,1.70
2018-08-14T11:36:57.926Z,1.70
2018-08-14T11:39:25.967Z,1.73
2018-08-14T11:41:54.087Z,1.67
2018-08-14T11:44:22.106Z,2.10
2018-08-14T11:46:50.223Z,1.17
2018-08-14T11:49:18.233Z,1.53
2018-08-14T11:51:46.375Z,1.70
2018-08-14T11:54:14.520Z,1.97
2018-08-14T11:56:42.789Z,2.20
2018-08-14T11:59:11.016Z,2.30
2018-08-14T12:01:39.482Z,3.67
2018-08-14T12:04:07.949Z,2.53
2018-08-14T12:06:36.069Z,3.63
2018-08-14T12:09:08.372Z,2.00
2018-08-14T12:11:36.728Z,2.00
2018-08-14T12:14:04.807Z,2.43
2018-08-14T12:16:32.816Z,3.00
2018-08-14T12:19:01.030Z,2.70
2018-08-14T12:21:29.080Z,2.27
2018-08-14T12:23:57.312Z,2.30
2018-08-14T12:26:25.328Z,2.50
2018-08-14T12:28:53.394Z,2.53
2018-08-14T12:31:21.673Z,3.10
2018-08-14T12:33:49.708Z,3.23
2018-08-14T12:36:17.921Z,3.00
2018-08-14T12:38:45.960Z,2.93
2018-08-14T12:41:14.145Z,2.53
2018-08-14T12:43:42.198Z,3.03
2018-08-14T12:46:10.284Z,2.87
2018-08-14T12:48:38.389Z,2.67
2018-08-14T12:51:06.514Z,2.83
2018-08-14T12:53:34.572Z,3.10
2018-08-14T12:56:02.596Z,3.13
2018-08-14T12:58:30.684Z,3.10
2018-08-14T13:00:58.965Z,3.37
2018-08-14T13:03:27.181Z,3.10
2018-08-14T13:05:55.216Z,3.10
2018-08-14T13:08:23.384Z,4.30
2018-08-14T13:10:51.648Z,4.10
2018-08-14T13:13:19.840Z,4.60
2018-08-14T13:15:47.902Z,4.83
2018-08-14T13:18:16.108Z,5.60
2018-08-14T13:20:44.375Z,6.00
2018-08-14T13:23:14.077Z,6.47
2018-08-14T13:25:42.185Z,5.87
2018-08-14T13:28:11.201Z,6.23
2018-08-14T13:30:39.957Z,5.30
2018-08-14T13:33:08.021Z,4.30
2018-08-14T13:35:36.131Z,5.03
2018-08-14T13:38:04.177Z,4.57
2018-08-14T13:40:32.298Z,4.40
2018-08-14T13:43:00.340Z,4.83
2018-08-14T13:45:28.352Z,3.60
2018-08-14T13:47:56.415Z,2.50
2018-08-14T13:50:24.426Z,2.43
2018-08-14T13:52:52.470Z,2.30
2018-08-14T13:55:20.796Z,2.27
2018-08-14T13:57:49.447Z,2.17
2018-08-14T14:00:19.621Z,2.40
2018-08-14T14:02:47.644Z,1.97
2018-08-14T14:05:15.726Z,2.23
2018-08-14T14:07:44.226Z,2.37
2018-08-14T14:10:13.737Z,2.30
2018-08-14T14:12:42.204Z,2.23
2018-08-14T14:15:27.017Z,2.10
2018-08-14T14:17:55.864Z,1.80
2018-08-14T14:20:27.117Z,3.43
2018-08-14T14:22:55.156Z,1.70
2018-08-14T14:25:23.361Z,2.00
2018-08-14T14:27:51.440Z,2.30
2018-08-14T14:30:19.728Z,1.90
2018-08-14T14:32:47.844Z,2.00
2018-08-14T14:35:15.882Z,1.90
2018-08-14T14:37:44.072Z,2.10
2018-08-14T14:40:18.071Z,2.40
2018-08-14T14:42:46.164Z,2.23
2018-08-14T14:45:14.852Z,2.40
2018-08-14T14:47:44.040Z,1.50
2018-08-14T14:50:12.393Z,1.80
2018-08-14T14:52:41.264Z,2.50
2018-08-14T14:55:12.504Z,1.80
2018-08-14T14:57:41.127Z,2.20
2018-08-14T15:00:14.463Z,3.07
2018-08-14T15:02:42.844Z,2.20
2018-08-14T15:05:10.914Z,1.70
2018-08-14T15:07:39.257Z,1.70
2018-08-14T15:10:07.329Z,1.90
2018-08-14T15:12:35.436Z,2.60
2018-08-14T15:15:03.489Z,1.70
2018-08-14T15:17:31.688Z,2.13
2018-08-14T15:19:59.802Z,2.23
2018-08-14T15:22:27.771Z,2.20
2018-08-14T15:24:55.844Z,2.83
2018-08-14T15:27:23.904Z,1.60
2018-08-14T15:29:51.969Z,1.23
2018-08-14T15:32:20.048Z,1.23
2018-08-14T15:34:49.132Z,1.67
2018-08-14T15:37:17.137Z,1.43
2018-08-14T15:39:45.198Z,1.40
2018-08-14T15:42:13.225Z,1.20
2018-08-14T15:44:41.507Z,1.20
2018-08-14T15:47:09.583Z,1.27
2018-08-14T15:49:37.799Z,1.33
2018-08-14T15:52:05.990Z,1.30
2018-08-14T15:54:34.015Z,1.67
2018-08-14T15:57:02.035Z,1.47
2018-08-14T15:59:30.204Z,1.20
2018-08-14T16:01:58.248Z,1.27
2018-08-14T16:04:26.257Z,1.60
2018-08-14T16:06:54.385Z,1.30
2018-08-14T16:09:22.816Z,1.10
2018-08-14T16:11:51.294Z,1.20
2018-08-14T16:14:19.351Z,1.07
2018-08-14T16:16:47.428Z,1.20
2018-08-14T16:19:16.453Z,1.40
2018-08-14T16:21:44.520Z,1.47
2018-08-14T16:24:13.894Z,1.10
2018-08-14T16:26:42.040Z,1.27
2018-08-14T16:29:10.191Z,1.33
2018-08-14T16:31:38.229Z,1.10
2018-08-14T16:34:06.389Z,1.00
2018-08-14T16:36:34.405Z,1.53
2018-08-14T16:39:02.417Z,1.40
2018-08-14T16:41:30.420Z,1.33
2018-08-14T16:43:58.440Z,1.30
2018-08-14T16:46:26.529Z,1.30
2018-08-14T16:48:54.569Z,1.70
2018-08-14T16:51:22.588Z,1.53
2018-08-14T16:53:51.525Z,1.37
2018-08-14T16:56:19.756Z,1.10
2018-08-14T16:58:47.923Z,2.00
2018-08-14T17:01:16.085Z,1.60
2018-08-14T17:03:44.120Z,1.20
2018-08-14T17:06:12.188Z,1.73
2018-08-14T17:08:40.236Z,1.30
2018-08-14T17:11:08.368Z,1.10
2018-08-14T17:13:36.597Z,1.23
2018-08-14T17:16:04.600Z,1.80
2018-08-14T17:18:32.613Z,1.20
2018-08-14T17:20:59.692Z,1.23
2018-08-14T17:23:27.752Z,1.30
2018-08-14T17:25:55.808Z,1.90
2018-08-14T17:28:23.823Z,1.50
2018-08-14T17:30:51.940Z,2.33
2018-08-14T17:33:20.025Z,2.23
2018-08-14T17:35:48.102Z,1.50
2018-08-14T17:38:16.197Z,1.40
2018-08-14T17:40:44.329Z,2.07
2018-08-14T17:43:12.355Z,1.63
2018-08-14T17:45:40.464Z,1.60
2018-08-14T17:48:08.536Z,1.10
2018-08-14T17:50:36.610Z,1.70
2018-08-14T17:53:04.664Z,1.33
2018-08-14T17:55:32.705Z,1.87
2018-08-14T17:58:00.708Z,1.93
2018-08-14T18:00:30.008Z,1.60
2018-08-14T18:03:00.173Z,2.00
2018-08-14T18:05:28.165Z,1.80
2018-08-14T18:07:56.188Z,1.90
2018-08-14T18:10:24.635Z,2.30
2018-08-14T18:12:52.744Z,2.03
2018-08-14T18:15:21.513Z,2.20
2018-08-14T18:17:49.631Z,1.83
2018-08-14T18:20:18.893Z,2.10
2018-08-14T18:22:46.952Z,1.87
2018-08-14T18:25:16.374Z,2.40
2018-08-14T18:27:44.985Z,3.00
2018-08-14T18:30:14.276Z,1.50
2018-08-14T18:32:42.318Z,1.90
2018-08-14T18:35:10.812Z,2.07
2018-08-14T18:37:39.089Z,1.90
2018-08-14T18:40:09.741Z,2.50
2018-08-14T18:42:37.822Z,1.70
2018-08-14T18:45:07.250Z,2.00
2018-08-14T18:47:35.284Z,2.20
2018-08-14T18:50:03.509Z,1.70
2018-08-14T18:52:31.570Z,1.70
2018-08-14T18:54:59.552Z,1.70
2018-08-14T18:57:27.677Z,2.33
2018-08-14T18:59:55.684Z,1.73
2018-08-14T19:02:24.005Z,1.90
2018-08-14T19:04:52.038Z,1.60
2018-08-14T19:07:20.149Z,2.20
2018-08-14T19:09:48.192Z,2.10
2018-08-14T19:12:16.248Z,2.83
2018-08-14T19:14:44.270Z,1.70
2018-08-14T19:17:12.390Z,1.73
2018-08-14T19:19:40.392Z,1.40
2018-08-14T19:22:08.657Z,3.53
2018-08-14T19:24:36.673Z,2.43
2018-08-14T19:27:04.726Z,1.80
2018-08-14T19:29:32.724Z,2.10
2018-08-14T19:32:00.889Z,1.90
2018-08-14T19:34:28.960Z,1.83
2018-08-14T19:36:57.067Z,2.00
2018-08-14T19:39:25.080Z,1.90
2018-08-14T19:41:53.136Z,2.30
2018-08-14T19:44:21.153Z,1.87
2018-08-14T19:46:49.228Z,2.23
2018-08-14T19:49:17.237Z,2.60
2018-08-14T19:51:45.232Z,2.17
2018-08-14T19:54:13.264Z,1.97
2018-08-14T19:56:41.399Z,1.70
2018-08-14T19:59:09.345Z,2.50
2018-08-14T20:01:37.373Z,1.53
2018-08-14T20:04:06.600Z,2.23
2018-08-14T20:06:34.599Z,1.70
2018-08-14T20:09:02.922Z,2.37
2018-08-14T20:11:30.916Z,2.00
2018-08-14T20:13:58.960Z,1.90
2018-08-14T20:16:27.110Z,1.70
2018-08-14T20:18:55.136Z,1.50
2018-08-14T20:21:23.205Z,1.93
2018-08-14T20:23:51.249Z,1.70
2018-08-14T20:26:19.232Z,1.30
2018-08-14T20:28:47.316Z,1.57
2018-08-14T20:31:15.312Z,1.80
2018-08-14T20:33:43.371Z,1.87
2018-08-14T20:36:11.394Z,1.60
2018-08-14T20:38:39.450Z,1.83
2018-08-14T20:41:07.560Z,1.80
2018-08-14T20:43:35.616Z,2.03
2018-08-14T20:46:03.626Z,1.53
2018-08-14T20:48:31.630Z,1.73
2018-08-14T20:50:59.677Z,1.40
2018-08-14T20:53:27.701Z,1.97
2018-08-14T20:55:55.755Z,1.97
2018-08-14T20:58:23.850Z,1.70
2018-08-14T21:00:51.847Z,2.13
2018-08-14T21:03:19.869Z,1.50
2018-08-14T21:05:48.008Z,1.50
2018-08-14T21:08:16.022Z,2.80
2018-08-14T21:10:44.009Z,1.50
2018-08-14T21:13:12.034Z,2.30
2018-08-14T21:15:45.576Z,1.63
2018-08-14T21:18:13.969Z,2.27
2018-08-14T21:20:41.981Z,2.07
2018-08-14T21:23:09.996Z,1.93
2018-08-14T21:25:37.996Z,1.60
2018-08-14T21:28:06.052Z,1.80
2018-08-14T21:30:34.100Z,1.90
2018-08-14T21:33:02.161Z,1.63
2018-08-14T21:35:30.153Z,1.87
2018-08-14T21:37:59.196Z,1.43
2018-08-14T21:40:27.197Z,2.60
2018-08-14T21:42:55.189Z,2.23
2018-08-14T21:45:23.189Z,2.67
2018-08-14T21:47:51.218Z,2.10
2018-08-14T21:50:19.268Z,1.80
2018-08-14T21:52:47.297Z,1.77
2018-08-14T21:55:15.850Z,1.73
2018-08-14T21:57:44.785Z,1.90
2018-08-14T22:00:19.045Z,1.97
2018-08-14T22:02:47.086Z,2.23
2018-08-14T22:05:15.696Z,2.13
2018-08-14T22:07:44.178Z,2.40
2018-08-14T22:10:12.297Z,2.20
2018-08-14T22:12:40.364Z,2.13
2018-08-14T22:15:08.809Z,2.30
2018-08-14T22:17:36.833Z,2.07
2018-08-14T22:20:06.182Z,2.13
2018-08-14T22:22:34.185Z,2.77
2018-08-14T22:25:02.228Z,2.47
2018-08-14T22:27:30.388Z,2.00
2018-08-14T22:29:58.453Z,2.40
2018-08-14T22:32:26.491Z,1.93
2018-08-14T22:34:54.538Z,2.47
2018-08-14T22:37:22.540Z,2.10
2018-08-14T22:39:50.645Z,2.87
2018-08-14T22:42:18.785Z,2.50
2018-08-14T22:44:46.801Z,2.20
2018-08-14T22:47:14.840Z,2.37
2018-08-14T22:49:42.846Z,2.60
2018-08-14T22:52:10.909Z,1.90
2018-08-14T22:54:39.006Z,2.40
2018-08-14T22:57:06.920Z,2.00
2018-08-14T22:59:35.005Z,2.10
2018-08-14T23:02:03.005Z,1.80
2018-08-14T23:04:31.033Z,1.80
2018-08-14T23:06:59.063Z,1.83
2018-08-14T23:09:27.082Z,2.33
2018-08-14T23:11:55.116Z,2.20
2018-08-14T23:14:23.172Z,2.13
2018-08-14T23:16:51.216Z,2.40
2018-08-14T23:19:19.217Z,2.13
2018-08-14T23:21:47.344Z,2.00
2018-08-14T23:24:15.402Z,3.00
2018-08-14T23:26:43.480Z,1.63
2018-08-14T23:29:11.497Z,1.60
2018-08-14T23:31:39.510Z,2.37
2018-08-14T23:34:08.002Z,2.17
2018-08-14T23:36:36.185Z,2.23
2018-08-14T23:39:07.316Z,3.10
2018-08-14T23:41:35.312Z,2.50
2018-08-14T23:44:03.306Z,2.00
2018-08-14T23:46:31.309Z,2.57
2018-08-14T23:48:59.304Z,1.90
2018-08-14T23:51:29.454Z,2.40
2018-08-14T23:53:57.470Z,2.30
2018-08-14T23:56:25.500Z,2.10
2018-08-14T23:58:53.519Z,2.77
